Time;durP1;ratioP1;P1;durP2;ratioP2;P2;SDS_P1;SDS_P2;PMS_P1;PMS_P2;Temp;Humidity;BMP_temperature;BMP_pressure;BME280_temperature;BME280_humidity;BME280_pressure;Samples;Min_cycle;Max_cycle;Signal;HPM_P1;HPM_P2
2023/07/19 00:00:16;;;;;;;7.47;2.70;;;18.20;99.90;;;;;;5092583;28;20044;-81
2023/07/19 00:02:42;;;;;;;7.97;3.00;;;18.20;99.90;;;;;;5092537;28;20040;-81
2023/07/19 00:05:09;;;;;;;5.60;2.80;;;18.10;99.90;;;;;;5091200;28;20122;-81
2023/07/19 00:07:35;;;;;;;5.20;2.53;;;18.10;99.90;;;;;;5091323;28;20056;-81
2023/07/19 00:10:00;;;;;;;8.10;3.10;;;18.10;99.90;;;;;;5090990;28;20097;-81
2023/07/19 00:12:26;;;;;;;5.03;3.23;;;18.10;99.90;;;;;;5093639;28;20113;-80
2023/07/19 00:14:52;;;;;;;4.07;2.67;;;18.10;99.90;;;;;;5090646;28;20044;-80
2023/07/19 00:17:18;;;;;;;4.87;2.90;;;18.10;99.90;;;;;;5091486;28;20048;-80
2023/07/19 00:19:43;;;;;;;5.27;2.70;;;18.00;99.90;;;;;;5092423;28;20169;-80
2023/07/19 00:22:09;;;;;;;6.23;3.40;;;18.10;99.90;;;;;;5093589;28;20093;-80
2023/07/19 00:24:35;;;;;;;5.37;2.80;;;18.10;99.90;;;;;;5078175;28;20468;-81
2023/07/19 00:27:01;;;;;;;5.47;3.00;;;18.10;99.90;;;;;;5095796;28;20073;-81
2023/07/19 00:29:26;;;;;;;5.70;3.17;;;18.10;99.90;;;;;;5077899;28;20056;-81
2023/07/19 00:31:52;;;;;;;5.70;3.33;;;18.10;99.90;;;;;;5095864;28;20044;-81
2023/07/19 00:34:18;;;;;;;8.80;3.27;;;18.10;99.90;;;;;;5094703;28;20070;-81
2023/07/19 00:36:44;;;;;;;4.73;3.00;;;18.00;99.90;;;;;;5094758;28;20151;-80
2023/07/19 00:39:10;;;;;;;6.17;3.10;;;18.00;99.90;;;;;;5094145;28;20044;-80
2023/07/19 00:41:36;;;;;;;5.30;3.10;;;18.00;99.90;;;;;;5093980;28;20056;-80
2023/07/19 00:44:03;;;;;;;5.40;2.43;;;17.90;99.90;;;;;;5095342;28;20044;-80
2023/07/19 00:46:29;;;;;;;5.13;3.07;;;17.90;99.90;;;;;;5095643;28;20059;-80
2023/07/19 00:48:56;;;;;;;7.40;3.30;;;17.90;99.90;;;;;;5094185;28;20117;-80
2023/07/19 00:51:22;;;;;;;5.30;2.77;;;18.00;99.90;;;;;;5095462;28;20456;-81
2023/07/19 00:53:49;;;;;;;6.10;3.30;;;18.00;99.90;;;;;;5095756;28;20044;-81
2023/07/19 00:56:15;;;;;;;6.17;3.40;;;18.00;99.90;;;;;;5077129;28;20904;-81
2023/07/19 00:58:43;;;;;;;6.20;3.00;;;18.00;99.90;;;;;;5094457;28;20126;-80
2023/07/19 01:01:09;;;;;;;8.13;3.40;;;18.00;99.90;;;;;;5095179;28;20127;-80
2023/07/19 01:03:35;;;;;;;6.53;3.27;;;17.90;99.90;;;;;;5095427;28;20051;-81
2023/07/19 01:06:03;;;;;;;5.70;3.47;;;17.90;99.90;;;;;;5095103;28;20400;-80
2023/07/19 01:08:28;;;;;;;7.33;3.63;;;17.90;99.90;;;;;;5095483;28;20056;-80
2023/07/19 01:10:54;;;;;;;6.90;3.73;;;17.90;99.90;;;;;;5094155;28;20043;-81
2023/07/19 01:13:20;;;;;;;7.93;3.90;;;17.90;99.90;;;;;;5077036;28;20490;-81
2023/07/19 01:15:45;;;;;;;5.53;3.37;;;17.90;99.90;;;;;;5095123;28;20055;-80
2023/07/19 01:18:11;;;;;;;5.37;3.33;;;17.90;99.90;;;;;;5059905;28;20105;-82
2023/07/19 01:20:37;;;;;;;7.47;3.47;;;17.90;99.90;;;;;;5093756;28;20127;-81
2023/07/19 01:23:03;;;;;;;5.90;4.17;;;17.90;99.90;;;;;;5094726;28;20043;-81
2023/07/19 01:25:29;;;;;;;7.00;3.77;;;17.90;99.90;;;;;;5094773;28;20052;-81
2023/07/19 01:27:55;;;;;;;9.13;3.80;;;17.80;99.90;;;;;;5095000;28;20115;-81
2023/07/19 01:30:20;;;;;;;7.80;3.53;;;17.80;99.90;;;;;;5094653;28;20052;-81
2023/07/19 01:32:46;;;;;;;7.83;4.40;;;17.70;99.90;;;;;;5094281;28;20055;-81
2023/07/19 01:35:12;;;;;;;6.97;3.97;;;17.80;99.90;;;;;;5093927;28;20127;-81
2023/07/19 01:37:39;;;;;;;5.90;3.97;;;17.70;99.90;;;;;;5094545;28;20055;-81
2023/07/19 01:40:06;;;;;;;9.33;3.90;;;17.80;99.90;;;;;;5094044;28;20131;-81
2023/07/19 01:42:32;;;;;;;7.70;3.83;;;17.80;99.90;;;;;;5094423;28;20055;-80
2023/07/19 01:44:59;;;;;;;6.70;3.93;;;17.80;99.90;;;;;;5094449;28;20112;-81
2023/07/19 01:47:25;;;;;;;7.60;4.20;;;17.80;99.90;;;;;;5094246;28;20087;-81
2023/07/19 01:49:51;;;;;;;8.30;4.30;;;17.80;99.90;;;;;;5094476;28;20036;-81
2023/07/19 01:52:17;;;;;;;8.20;4.00;;;17.80;99.90;;;;;;5094192;28;20491;-81
2023/07/19 01:54:43;;;;;;;7.53;4.10;;;17.80;99.90;;;;;;5093170;28;20119;-81
2023/07/19 01:57:09;;;;;;;7.87;4.20;;;17.80;99.90;;;;;;5094009;28;20522;-81
2023/07/19 01:59:35;;;;;;;10.67;5.20;;;17.80;99.90;;;;;;5093392;28;20051;-81
2023/07/19 02:02:01;;;;;;;5.83;3.70;;;17.80;99.90;;;;;;5094096;28;20043;-81
2023/07/19 02:04:27;;;;;;;7.17;3.90;;;17.70;99.90;;;;;;5092884;28;20047;-81
2023/07/19 02:06:53;;;;;;;7.97;4.43;;;17.80;99.90;;;;;;5093330;28;20496;-81
2023/07/19 02:09:19;;;;;;;6.80;4.10;;;17.70;99.90;;;;;;5092866;28;20055;-81
2023/07/19 02:11:44;;;;;;;6.73;4.63;;;17.80;99.90;;;;;;5094624;28;20044;-81
2023/07/19 02:14:10;;;;;;;7.10;4.93;;;17.80;99.90;;;;;;5094341;28;20142;-81
2023/07/19 02:16:36;;;;;;;6.13;4.30;;;17.70;99.90;;;;;;5092764;28;20448;-80
2023/07/19 02:19:03;;;;;;;7.03;4.77;;;17.70;99.90;;;;;;5092733;28;20052;-81
2023/07/19 02:21:29;;;;;;;8.87;5.33;;;17.70;99.90;;;;;;5093864;28;20535;-81
2023/07/19 02:23:55;;;;;;;8.97;4.93;;;17.70;99.90;;;;;;5094002;28;20096;-81
2023/07/19 02:26:21;;;;;;;8.30;4.97;;;17.70;99.90;;;;;;5093671;28;20499;-81
2023/07/19 02:28:46;;;;;;;7.20;4.97;;;17.70;99.90;;;;;;5059367;28;20059;-81
2023/07/19 02:31:12;;;;;;;7.83;5.00;;;17.70;99.90;;;;;;5092436;28;20472;-81
2023/07/19 02:33:38;;;;;;;10.47;5.30;;;17.70;99.90;;;;;;5092590;28;20048;-81
2023/07/19 02:36:04;;;;;;;8.07;4.60;;;17.70;99.90;;;;;;5092586;28;20101;-81
2023/07/19 02:38:29;;;;;;;8.80;6.00;;;17.70;99.90;;;;;;5093466;28;20040;-81
2023/07/19 02:40:59;;;;;;;7.93;5.23;;;17.60;99.90;;;;;;5093590;28;20617;-80
2023/07/19 02:43:26;;;;;;;9.07;6.03;;;17.60;99.90;;;;;;5093338;28;20135;-80
2023/07/19 02:45:55;;;;;;;6.60;5.30;;;17.60;99.90;;;;;;5093066;28;20480;-80
2023/07/19 02:48:21;;;;;;;8.00;5.60;;;17.60;99.90;;;;;;5093171;28;20040;-81
2023/07/19 02:50:48;;;;;;;6.83;5.43;;;17.60;99.90;;;;;;5093418;28;20044;-81
2023/07/19 02:53:15;;;;;;;12.07;6.17;;;17.60;99.90;;;;;;5093046;28;20052;-81
2023/07/19 02:55:43;;;;;;;8.23;6.07;;;17.60;99.90;;;;;;5092516;28;20468;-81
2023/07/19 02:58:09;;;;;;;10.47;5.93;;;17.60;99.90;;;;;;5075168;28;20143;-81
2023/07/19 03:00:40;;;;;;;10.10;6.07;;;17.60;99.90;;;;;;5075525;28;20051;-81
2023/07/19 03:03:06;;;;;;;8.43;6.00;;;17.60;99.90;;;;;;5092391;28;20105;-81
2023/07/19 03:05:34;;;;;;;8.23;6.20;;;17.60;99.90;;;;;;5075182;28;20044;-81
2023/07/19 03:08:01;;;;;;;6.70;5.10;;;17.60;99.90;;;;;;5093504;28;20126;-81
2023/07/19 03:10:27;;;;;;;8.90;6.33;;;17.60;99.90;;;;;;5092836;28;20043;-81
2023/07/19 03:12:53;;;;;;;7.37;5.50;;;17.60;99.90;;;;;;5093014;28;20052;-81
2023/07/19 03:15:18;;;;;;;9.90;6.00;;;17.50;99.90;;;;;;5074489;28;20480;-80
2023/07/19 03:17:44;;;;;;;8.90;6.33;;;17.60;99.90;;;;;;5092979;28;20055;-81
2023/07/19 03:20:10;;;;;;;7.90;6.03;;;17.60;99.90;;;;;;5091757;28;20399;-80
2023/07/19 03:22:36;;;;;;;8.07;6.13;;;17.50;99.90;;;;;;5091490;28;20071;-81
2023/07/19 03:25:02;;;;;;;10.87;6.80;;;17.50;99.90;;;;;;5092923;28;20040;-81
2023/07/19 03:27:28;;;;;;;8.27;5.90;;;17.50;99.90;;;;;;5092695;28;20111;-81
2023/07/19 03:29:54;;;;;;;9.97;6.37;;;17.50;99.90;;;;;;5092143;28;20157;-81
2023/07/19 03:32:19;;;;;;;9.83;6.10;;;17.50;99.90;;;;;;5091580;28;20071;-81
2023/07/19 03:34:45;;;;;;;9.17;6.90;;;17.50;99.90;;;;;;5093197;28;20040;-81
2023/07/19 03:37:11;;;;;;;11.23;6.33;;;17.50;99.90;;;;;;5092932;28;20456;-81
2023/07/19 03:39:37;;;;;;;8.57;7.00;;;17.50;99.90;;;;;;5074804;28;20044;-81
2023/07/19 03:42:02;;;;;;;8.97;6.63;;;17.50;99.90;;;;;;5093132;28;20135;-81
2023/07/19 03:44:28;;;;;;;9.93;6.20;;;17.50;99.90;;;;;;5092645;28;20085;-81
2023/07/19 03:46:54;;;;;;;9.10;6.20;;;17.50;99.90;;;;;;5092822;28;20040;-80
2023/07/19 03:49:20;;;;;;;9.10;6.73;;;17.60;99.90;;;;;;5092555;28;20135;-80
2023/07/19 03:51:45;;;;;;;9.77;6.90;;;17.60;99.90;;;;;;5092919;28;20052;-80
2023/07/19 03:54:11;;;;;;;8.27;6.17;;;17.60;99.90;;;;;;5092593;28;20101;-80
2023/07/19 03:56:37;;;;;;;10.37;6.10;;;17.50;99.90;;;;;;5075227;28;20560;-80
2023/07/19 03:59:03;;;;;;;8.37;6.80;;;17.60;99.90;;;;;;5096562;28;20071;-80
2023/07/19 04:01:29;;;;;;;8.47;6.67;;;17.60;99.90;;;;;;5096224;28;20047;-81
2023/07/19 04:03:54;;;;;;;8.77;7.53;;;17.60;99.90;;;;;;5096943;28;20044;-80
2023/07/19 04:06:20;;;;;;;8.97;7.10;;;17.60;99.90;;;;;;5095263;28;20048;-81
2023/07/19 04:08:46;;;;;;;9.13;6.90;;;17.60;99.90;;;;;;5095795;28;20137;-81
2023/07/19 04:11:11;;;;;;;9.87;7.30;;;17.60;99.90;;;;;;5096994;28;20048;-81
2023/07/19 04:13:37;;;;;;;9.20;7.53;;;17.60;99.90;;;;;;5077785;28;20051;-81
2023/07/19 04:16:03;;;;;;;9.57;7.20;;;17.60;99.90;;;;;;5096552;28;20105;-81
2023/07/19 04:18:29;;;;;;;10.40;6.70;;;17.50;99.90;;;;;;5078208;28;20396;-81
2023/07/19 04:20:58;;;;;;;9.73;6.93;;;17.50;99.90;;;;;;5096351;28;20076;-81
2023/07/19 04:23:25;;;;;;;10.17;7.43;;;17.50;99.90;;;;;;5094429;28;20087;-81
2023/07/19 04:25:51;;;;;;;10.97;6.77;;;17.50;99.90;;;;;;5096037;28;20044;-81
2023/07/19 04:28:17;;;;;;;9.07;7.07;;;17.60;99.90;;;;;;5096115;28;20067;-80
2023/07/19 04:30:44;;;;;;;12.60;7.30;;;17.60;99.90;;;;;;5095557;28;20048;-80
2023/07/19 04:33:10;;;;;;;13.20;7.00;;;17.60;99.90;;;;;;5095638;28;20540;-80
2023/07/19 04:35:36;;;;;;;9.13;6.77;;;17.60;99.90;;;;;;5077532;28;20424;-80
2023/07/19 04:38:03;;;;;;;10.30;6.93;;;17.60;99.90;;;;;;5095666;28;20048;-80
2023/07/19 04:40:30;;;;;;;10.57;6.57;;;17.60;99.90;;;;;;5094047;28;20476;-80
2023/07/19 04:42:56;;;;;;;9.70;6.60;;;17.60;99.90;;;;;;5096015;28;20407;-80
2023/07/19 04:45:22;;;;;;;12.23;7.47;;;17.60;99.90;;;;;;5094523;28;20048;-80
2023/07/19 04:47:47;;;;;;;8.77;6.57;;;17.70;99.90;;;;;;5095550;28;20052;-80
2023/07/19 04:50:13;;;;;;;9.40;7.13;;;17.60;99.90;;;;;;5095722;28;20040;-81
2023/07/19 04:52:39;;;;;;;9.57;7.17;;;17.70;99.90;;;;;;5095471;28;20507;-81
2023/07/19 04:55:05;;;;;;;11.57;7.07;;;17.70;99.90;;;;;;5095459;28;20567;-80
2023/07/19 04:57:31;;;;;;;11.90;7.13;;;17.70;99.90;;;;;;5095096;28;20051;-81
2023/07/19 04:59:57;;;;;;;9.63;6.43;;;17.70;99.90;;;;;;5094239;28;20074;-81
2023/07/19 05:02:23;;;;;;;11.67;7.33;;;17.70;99.90;;;;;;5094145;28;20040;-81
2023/07/19 05:04:49;;;;;;;10.47;6.90;;;17.70;99.90;;;;;;5094342;28;20048;-80
2023/07/19 05:07:14;;;;;;;9.07;6.80;;;17.70;99.90;;;;;;5094044;28;20100;-80
2023/07/19 05:09:42;;;;;;;8.00;6.00;;;17.70;99.90;;;;;;5094990;28;20051;-80
2023/07/19 05:12:09;;;;;;;11.63;6.87;;;17.80;99.90;;;;;;5095158;28;20083;-81
2023/07/19 05:14:34;;;;;;;8.97;6.47;;;17.80;99.90;;;;;;5094808;28;20314;-81
2023/07/19 05:17:01;;;;;;;9.13;5.97;;;17.80;99.90;;;;;;5093857;28;20496;-79
2023/07/19 05:19:27;;;;;;;8.17;6.00;;;17.80;99.90;;;;;;5093805;28;20048;-80
2023/07/19 05:21:52;;;;;;;10.80;5.40;;;17.80;99.90;;;;;;5094823;28;20044;-80
2023/07/19 05:24:18;;;;;;;9.37;5.73;;;17.70;99.90;;;;;;5094597;28;20044;-80
2023/07/19 05:26:44;;;;;;;8.83;5.50;;;17.70;99.90;;;;;;5094521;28;20544;-80
2023/07/19 05:29:10;;;;;;;9.43;5.63;;;17.70;99.90;;;;;;5093694;28;20044;-80
2023/07/19 05:31:36;;;;;;;9.70;5.33;;;17.80;99.90;;;;;;5093600;28;20047;-80
2023/07/19 05:34:02;;;;;;;6.70;4.27;;;17.80;99.90;;;;;;5094488;28;20033;-79
2023/07/19 05:36:28;;;;;;;9.17;5.53;;;17.70;99.90;;;;;;5076055;28;20131;-80
2023/07/19 05:38:54;;;;;;;7.60;5.40;;;17.70;99.90;;;;;;5093295;28;20131;-80
2023/07/19 05:41:20;;;;;;;8.23;5.47;;;17.70;99.90;;;;;;5092882;28;20056;-80
2023/07/19 05:43:46;;;;;;;11.53;5.40;;;17.70;99.90;;;;;;5092970;28;20055;-80
2023/07/19 05:46:12;;;;;;;7.60;5.47;;;17.70;99.90;;;;;;5093376;28;20044;-81
2023/07/19 05:48:37;;;;;;;9.63;4.77;;;17.70;99.90;;;;;;5094151;28;20484;-80
2023/07/19 05:51:06;;;;;;;7.87;4.83;;;17.70;99.90;;;;;;5094333;28;20492;-80
2023/07/19 05:53:32;;;;;;;7.63;4.60;;;17.70;99.90;;;;;;5092896;28;20083;-80
2023/07/19 05:55:57;;;;;;;8.30;4.17;;;17.70;99.90;;;;;;5076443;28;20101;-80
2023/07/19 05:58:24;;;;;;;7.10;3.97;;;17.70;99.90;;;;;;5093425;28;20044;-81
2023/07/19 06:00:49;;;;;;;6.63;4.40;;;17.70;99.90;;;;;;5093952;28;20239;-81
2023/07/19 06:03:18;;;;;;;6.83;3.27;;;17.70;99.90;;;;;;5094194;28;20442;-80
2023/07/19 06:05:44;;;;;;;8.90;4.10;;;17.80;99.90;;;;;;5092898;28;20063;-81
2023/07/19 06:08:14;;;;;;;7.33;3.70;;;17.80;99.90;;;;;;5093737;28;20048;-81
2023/07/19 06:10:40;;;;;;;10.47;3.30;;;17.80;99.90;;;;;;5093789;28;20063;-81
2023/07/19 06:13:06;;;;;;;6.63;3.33;;;17.80;99.90;;;;;;5094072;28;20048;-81
2023/07/19 06:15:35;;;;;;;7.13;3.43;;;17.90;99.90;;;;;;5092379;28;20036;-81
2023/07/19 06:18:01;;;;;;;8.87;3.67;;;17.90;99.90;;;;;;5093941;28;20101;-80
2023/07/19 06:20:27;;;;;;;5.60;3.13;;;17.90;99.90;;;;;;5092369;28;20055;-80
2023/07/19 06:22:53;;;;;;;9.90;3.10;;;17.90;99.90;;;;;;5092331;28;20058;-81
2023/07/19 06:25:19;;;;;;;5.43;2.50;;;17.90;99.90;;;;;;5094291;28;20052;-81
2023/07/19 06:27:44;;;;;;;7.03;3.00;;;17.90;99.90;;;;;;5092395;28;20040;-80
2023/07/19 06:30:11;;;;;;;7.67;2.80;;;17.90;99.90;;;;;;5093607;28;20154;-81
2023/07/19 06:32:37;;;;;;;6.43;2.30;;;17.90;99.90;;;;;;5093360;28;20458;-81
2023/07/19 06:35:08;;;;;;;6.43;3.40;;;17.90;99.90;;;;;;5093616;28;20185;-81
2023/07/19 06:37:34;;;;;;;7.93;2.80;;;18.00;99.90;;;;;;5093405;28;20039;-81
2023/07/19 06:40:02;;;;;;;7.87;2.40;;;18.00;99.90;;;;;;5093326;28;20066;-80
2023/07/19 06:42:28;;;;;;;6.90;2.30;;;18.00;99.90;;;;;;5093673;28;20044;-80
2023/07/19 06:44:56;;;;;;;4.33;2.00;;;18.10;99.90;;;;;;5093427;28;20051;-80
2023/07/19 06:47:22;;;;;;;4.53;2.30;;;18.10;99.90;;;;;;5093491;28;20083;-81
2023/07/19 06:49:47;;;;;;;7.03;2.10;;;18.20;99.90;;;;;;5093125;28;20079;-80
2023/07/19 06:52:13;;;;;;;5.63;1.73;;;18.20;99.90;;;;;;5092498;28;20047;-79
2023/07/19 06:54:39;;;;;;;4.30;1.70;;;18.20;99.90;;;;;;5091951;28;20044;-80
2023/07/19 06:57:05;;;;;;;5.27;2.00;;;18.20;99.90;;;;;;5093310;28;20361;-80
2023/07/19 06:59:31;;;;;;;5.00;2.13;;;18.30;99.90;;;;;;5093012;28;20502;-79
2023/07/19 07:01:57;;;;;;;3.13;1.50;;;18.20;99.90;;;;;;5092053;28;20052;-80
2023/07/19 07:04:23;;;;;;;4.13;1.77;;;18.30;99.90;;;;;;5092337;28;20127;-80
2023/07/19 07:06:49;;;;;;;4.13;1.47;;;18.30;99.90;;;;;;5092681;28;20048;-75
2023/07/19 07:09:15;;;;;;;2.87;1.63;;;18.30;99.90;;;;;;5091658;28;20039;-83
2023/07/19 07:11:41;;;;;;;3.53;1.40;;;18.40;99.90;;;;;;5092523;28;20132;-84
2023/07/19 07:14:08;;;;;;;5.47;1.60;;;18.40;99.90;;;;;;5091647;28;20039;-84
2023/07/19 07:16:34;;;;;;;4.80;1.73;;;18.50;99.90;;;;;;5072078;28;20060;-85
2023/07/19 07:19:00;;;;;;;3.03;1.40;;;18.50;99.90;;;;;;5071696;28;20048;-78
2023/07/19 07:21:26;;;;;;;4.23;1.70;;;18.50;99.90;;;;;;5072746;28;20469;-79
2023/07/19 07:23:52;;;;;;;3.70;1.53;;;18.50;99.90;;;;;;5054783;28;20048;-78
2023/07/19 07:26:17;;;;;;;2.63;1.30;;;18.50;99.90;;;;;;5072785;28;20052;-79
2023/07/19 07:28:43;;;;;;;4.43;1.67;;;18.50;99.90;;;;;;5072469;28;20051;-79
2023/07/19 07:31:09;;;;;;;2.67;1.43;;;18.50;99.90;;;;;;5072833;28;20132;-79
2023/07/19 07:33:35;;;;;;;5.20;1.93;;;18.50;99.90;;;;;;5075557;28;20048;-79
2023/07/19 07:36:01;;;;;;;6.77;1.60;;;18.50;99.90;;;;;;5075385;28;20506;-79
2023/07/19 07:38:27;;;;;;;5.93;2.37;;;18.50;99.90;;;;;;5076814;28;20044;-79
2023/07/19 07:41:01;;;;;;;5.10;1.77;;;18.50;99.90;;;;;;5076125;28;20527;-79
2023/07/19 07:43:27;;;;;;;4.97;2.27;;;18.50;99.90;;;;;;5058977;28;20056;-78
2023/07/19 07:45:55;;;;;;;4.23;1.70;;;18.60;99.90;;;;;;5076243;28;20048;-78
2023/07/19 07:48:22;;;;;;;3.67;1.67;;;18.70;99.90;;;;;;5076187;28;20510;-79
2023/07/19 07:50:52;;;;;;;3.50;1.57;;;18.70;99.90;;;;;;5076451;28;20044;-81
2023/07/19 07:53:21;;;;;;;4.00;1.73;;;18.80;99.90;;;;;;5076389;28;20094;-79
2023/07/19 07:55:48;;;;;;;4.57;2.20;;;19.10;99.90;;;;;;5076100;28;20048;-80
2023/07/19 07:58:14;;;;;;;4.87;1.67;;;19.90;99.90;;;;;;5074758;28;20127;-79
2023/07/19 08:00:41;;;;;;;3.33;1.30;;;20.80;99.90;;;;;;5058774;28;20144;-79
2023/07/19 08:03:08;;;;;;;4.53;1.70;;;21.30;99.90;;;;;;5076199;28;20052;-78
2023/07/19 08:05:34;;;;;;;4.67;1.73;;;22.00;99.90;;;;;;5075086;28;20190;-78
2023/07/19 08:07:59;;;;;;;3.70;1.70;;;22.30;99.90;;;;;;5076119;28;20084;-80
2023/07/19 08:10:25;;;;;;;3.80;1.80;;;22.20;99.90;;;;;;5076322;28;20058;-79
2023/07/19 08:12:51;;;;;;;4.27;1.83;;;22.10;99.90;;;;;;5058217;28;20555;-80
2023/07/19 08:15:17;;;;;;;4.10;1.77;;;22.00;99.90;;;;;;5076203;28;20080;-80
2023/07/19 08:17:43;;;;;;;3.93;1.57;;;22.00;99.90;;;;;;5076228;28;20135;-78
2023/07/19 08:20:09;;;;;;;4.57;1.63;;;21.90;99.90;;;;;;5074929;28;20048;-78
2023/07/19 08:22:37;;;;;;;5.93;1.60;;;21.90;99.90;;;;;;5058402;28;20044;-72
2023/07/19 08:25:07;;;;;;;4.50;1.50;;;22.00;99.90;;;;;;5088671;28;20098;-84
2023/07/19 08:27:33;;;;;;;4.73;1.77;;;21.90;99.90;;;;;;5095314;28;20044;-70
2023/07/19 08:30:00;;;;;;;3.80;1.40;;;22.30;99.90;;;;;;5095295;28;20040;-71
2023/07/19 08:32:26;;;;;;;3.20;1.60;;;23.30;99.90;;;;;;5095706;28;20396;-71
2023/07/19 08:34:52;;;;;;;4.17;2.03;;;24.70;99.90;;;;;;5095780;28;20389;-73
2023/07/19 08:37:18;;;;;;;17.33;3.07;;;25.90;99.90;;;;;;5095977;28;20148;-72
2023/07/19 08:39:44;;;;;;;4.77;1.77;;;27.00;99.90;;;;;;5094494;28;20040;-72
2023/07/19 08:42:10;;;;;;;3.27;1.37;;;27.90;99.20;;;;;;5094256;28;20052;-71
2023/07/19 08:44:36;;;;;;;3.70;1.37;;;27.90;95.00;;;;;;5076515;28;20052;-72
2023/07/19 08:47:04;;;;;;;4.67;1.60;;;27.40;91.20;;;;;;5094213;28;20054;-70
2023/07/19 08:49:33;;;;;;;4.87;1.70;;;26.70;89.40;;;;;;5094374;28;20055;-71
2023/07/19 08:52:01;;;;;;;3.53;1.30;;;25.70;91.00;;;;;;5093107;28;20048;-72
2023/07/19 08:54:27;;;;;;;3.47;1.40;;;24.90;93.10;;;;;;5094196;28;20040;-73
2023/07/19 08:56:53;;;;;;;3.50;1.40;;;24.20;95.40;;;;;;5094159;28;20131;-73
2023/07/19 08:59:19;;;;;;;4.77;1.30;;;23.60;96.40;;;;;;5093256;28;20131;-80
2023/07/19 09:01:44;;;;;;;3.67;1.60;;;23.10;97.70;;;;;;5094635;28;20044;-80
2023/07/19 09:04:10;;;;;;;4.37;1.40;;;22.70;98.90;;;;;;5094525;28;20044;-78
2023/07/19 09:06:36;;;;;;;4.07;1.63;;;22.50;99.90;;;;;;5094210;28;20047;-73
2023/07/19 09:09:02;;;;;;;4.73;1.70;;;22.40;99.90;;;;;;5092678;28;20391;-72
2023/07/19 09:11:27;;;;;;;5.73;1.67;;;22.50;99.90;;;;;;5092798;28;20075;-73
2023/07/19 09:13:55;;;;;;;4.30;1.80;;;22.50;99.90;;;;;;5093777;28;20069;-77
2023/07/19 09:16:32;;;;;;;5.00;2.20;;;22.60;99.90;;;;;;5094369;28;20496;-80
2023/07/19 09:18:59;;;;;;;4.33;1.80;;;22.60;99.90;;;;;;5059700;28;20048;-81
2023/07/19 09:21:34;;;;;;;4.50;1.80;;;22.50;99.90;;;;;;5094409;28;20044;-83
2023/07/19 09:24:04;;;;;;;6.00;2.08;;;22.50;99.90;;;;;;5092770;28;20490;-83
2023/07/19 09:26:56;;;;;;;4.77;1.60;;;22.60;99.90;;;;;;5093119;28;20052;-83
2023/07/19 09:29:23;;;;;;;6.33;1.87;;;22.80;99.90;;;;;;5092758;28;20492;-83
2023/07/19 09:32:02;;;;;;;5.20;1.80;;;23.00;99.90;;;;;;5093853;28;20097;-81
2023/07/19 09:34:35;;;;;;;5.27;2.20;;;23.20;99.90;;;;;;5093496;28;20480;-75
2023/07/19 09:37:02;;;;;;;5.57;1.87;;;23.30;99.90;;;;;;5092708;28;20062;-75
2023/07/19 09:39:29;;;;;;;5.40;2.37;;;23.40;99.90;;;;;;5093995;28;20124;-82
2023/07/19 09:41:56;;;;;;;3.77;1.60;;;23.40;99.90;;;;;;5054448;28;1135966;-84
2023/07/19 09:44:23;;;;;;;4.47;1.60;;;23.40;99.20;;;;;;5093774;28;20129;-82
2023/07/19 09:46:49;;;;;;;4.07;1.30;;;23.40;98.80;;;;;;5094788;28;20044;-82
2023/07/19 09:49:15;;;;;;;5.73;1.77;;;23.40;98.00;;;;;;5076106;28;20197;-82
2023/07/19 09:51:42;;;;;;;5.50;1.90;;;23.40;98.40;;;;;;5094482;28;20063;-82
2023/07/19 09:54:12;;;;;;;6.87;1.63;;;23.50;98.80;;;;;;5092307;28;20396;-73
2023/07/19 09:56:40;;;;;;;5.60;1.47;;;23.40;98.30;;;;;;5094420;28;20048;-79
2023/07/19 09:59:11;;;;;;;5.00;1.53;;;23.40;97.60;;;;;;5092898;28;20395;-73
2023/07/19 10:01:38;;;;;;;6.23;1.67;;;23.40;97.90;;;;;;5093009;28;20059;-75
2023/07/19 10:04:28;;;;;;;4.60;2.07;;;23.40;97.50;;;;;;5093739;28;20036;-74
2023/07/19 10:07:10;;;;;;;4.23;1.70;;;23.50;97.50;;;;;;5088717;28;20428;-75
2023/07/19 10:09:37;;;;;;;6.77;1.40;;;23.50;96.70;;;;;;5094075;28;20086;-72
2023/07/19 10:12:16;;;;;;;5.20;1.30;;;23.60;97.30;;;;;;5093756;28;20127;-72
2023/07/19 10:14:51;;;;;;;5.93;1.50;;;23.70;96.60;;;;;;5093861;28;20040;-74
2023/07/19 10:17:17;;;;;;;4.37;1.50;;;23.80;93.70;;;;;;5093650;28;20488;-79
2023/07/19 10:20:09;;;;;;;2.97;1.40;;;23.90;94.80;;;;;;5093968;28;20090;-79
2023/07/19 10:22:55;;;;;;;6.30;2.03;;;24.00;95.00;;;;;;5092588;28;20059;-81
2023/07/19 10:25:27;;;;;;;3.60;1.73;;;23.90;96.10;;;;;;5072261;28;20489;-83
2023/07/19 10:28:10;;;;;;;6.20;2.37;;;23.60;97.30;;;;;;5073628;28;20457;-80
2023/07/19 10:30:57;;;;;;;3.87;1.57;;;23.50;97.90;;;;;;5073631;28;20044;-80
2023/07/19 10:33:31;;;;;;;5.60;1.70;;;23.50;98.70;;;;;;5073069;28;20049;-80
2023/07/19 10:36:08;;;;;;;4.88;1.80;;;23.50;99.40;;;;;;5073247;28;20051;-80
2023/07/19 10:38:35;;;;;;;5.00;1.93;;;23.50;99.30;;;;;;5055338;28;20059;-80
2023/07/19 10:41:05;;;;;;;8.33;1.90;;;23.60;99.50;;;;;;5073082;28;20063;-81
2023/07/19 10:43:33;;;;;;;4.83;1.83;;;23.70;99.30;;;;;;5073128;28;20503;-81
2023/07/19 10:45:59;;;;;;;5.53;1.93;;;23.70;99.10;;;;;;5073615;28;20058;-82
2023/07/19 10:48:33;;;;;;;4.50;1.80;;;23.80;99.00;;;;;;5055391;28;20083;-83
2023/07/19 10:51:00;;;;;;;3.50;1.70;;;23.80;98.60;;;;;;5073425;28;20110;-82
2023/07/19 10:53:27;;;;;;;5.07;1.50;;;23.70;97.60;;;;;;5071542;28;20048;-79
2023/07/19 10:55:58;;;;;;;5.17;1.87;;;23.80;98.40;;;;;;5079777;28;20065;-79
2023/07/19 10:58:24;;;;;;;3.83;1.70;;;23.60;95.60;;;;;;5088322;28;20055;-78
2023/07/19 11:00:51;;;;;;;4.80;1.57;;;23.50;97.70;;;;;;5091429;28;20047;-78
2023/07/19 11:03:17;;;;;;;6.13;1.40;;;23.40;97.90;;;;;;5090117;28;20071;-78
2023/07/19 11:05:47;;;;;;;5.87;2.03;;;23.40;98.10;;;;;;5092013;28;20040;-78
2023/07/19 11:08:27;;;;;;;5.80;2.03;;;23.40;98.50;;;;;;5092032;28;20114;-80
2023/07/19 11:10:55;;;;;;;3.73;1.37;;;23.30;99.20;;;;;;5091813;28;20058;-82
2023/07/19 11:13:23;;;;;;;4.87;1.70;;;23.30;98.80;;;;;;5090594;28;20052;-80
2023/07/19 11:15:58;;;;;;;4.43;1.70;;;23.40;98.60;;;;;;5092324;28;20548;-80
2023/07/19 11:18:38;;;;;;;5.83;1.50;;;23.30;97.90;;;;;;5091249;28;20534;-79
2023/07/19 11:21:06;;;;;;;3.80;1.47;;;23.30;97.00;;;;;;5090591;28;20485;-80
2023/07/19 11:23:38;;;;;;;3.03;1.40;;;23.30;97.40;;;;;;5088418;28;20051;-81
2023/07/19 11:26:09;;;;;;;4.57;1.60;;;23.20;97.70;;;;;;5091811;28;20052;-78
2023/07/19 11:28:54;;;;;;;5.00;1.80;;;23.30;98.20;;;;;;5091859;28;20040;-81
2023/07/19 11:31:34;;;;;;;4.10;1.55;;;23.20;98.20;;;;;;5090371;28;20040;-79
2023/07/19 11:34:14;;;;;;;6.27;1.40;;;23.30;99.10;;;;;;5088108;28;20048;-78
2023/07/19 11:36:41;;;;;;;6.43;1.83;;;23.40;98.90;;;;;;5090995;28;20058;-77
2023/07/19 11:39:22;;;;;;;4.33;1.40;;;23.40;98.70;;;;;;5091644;28;20491;-80
2023/07/19 11:41:48;;;;;;;4.20;1.40;;;23.50;98.60;;;;;;5089067;28;20070;-79
2023/07/19 11:44:19;;;;;;;4.47;1.73;;;23.50;97.80;;;;;;5091388;28;20075;-79
2023/07/19 11:46:45;;;;;;;3.40;1.20;;;23.60;97.80;;;;;;5091359;28;20098;-80
2023/07/19 11:49:11;;;;;;;3.83;1.40;;;23.70;97.50;;;;;;5090503;28;20052;-79
2023/07/19 11:51:37;;;;;;;3.60;1.60;;;23.60;97.30;;;;;;5087886;28;20036;-79
2023/07/19 11:54:03;;;;;;;3.70;1.50;;;23.60;97.60;;;;;;5090244;28;20040;-78
2023/07/19 11:56:30;;;;;;;5.03;1.97;;;23.60;97.60;;;;;;5091245;28;20052;-80
2023/07/19 11:58:57;;;;;;;6.03;1.30;;;23.50;97.50;;;;;;5091677;28;20055;-79
2023/07/19 12:01:26;;;;;;;3.93;1.67;;;23.50;97.60;;;;;;5072547;28;20549;-78
2023/07/19 12:03:52;;;;;;;2.97;1.30;;;23.50;97.50;;;;;;5089654;28;20123;-80
2023/07/19 12:06:18;;;;;;;4.73;1.80;;;23.50;97.00;;;;;;5091349;28;20117;-78
2023/07/19 12:08:44;;;;;;;5.00;1.90;;;23.40;96.70;;;;;;5091397;28;20398;-80
2023/07/19 12:11:10;;;;;;;4.20;1.80;;;23.20;97.30;;;;;;5091147;28;20093;-80
2023/07/19 12:13:36;;;;;;;4.73;1.57;;;23.20;97.90;;;;;;5089487;28;20052;-81
2023/07/19 12:16:03;;;;;;;3.03;1.27;;;23.20;98.40;;;;;;5091072;28;20083;-79
2023/07/19 12:18:29;;;;;;;5.80;1.57;;;23.10;98.20;;;;;;5093297;28;20052;-80
2023/07/19 12:20:56;;;;;;;4.00;1.40;;;23.10;98.30;;;;;;5093895;28;20087;-79
2023/07/19 12:23:22;;;;;;;5.40;2.17;;;23.10;98.00;;;;;;5092391;28;20079;-81
2023/07/19 12:25:48;;;;;;;3.77;1.27;;;23.00;97.30;;;;;;5094999;28;20400;-80
2023/07/19 12:28:14;;;;;;;5.47;1.43;;;22.90;97.60;;;;;;5094626;28;20052;-80
2023/07/19 12:30:41;;;;;;;2.67;1.30;;;22.90;97.70;;;;;;5076460;28;20377;-82
2023/07/19 12:33:07;;;;;;;3.83;1.77;;;23.00;97.50;;;;;;5092008;28;20048;-82
2023/07/19 12:35:32;;;;;;;5.73;1.50;;;22.90;97.10;;;;;;5094584;28;20044;-81
2023/07/19 12:37:58;;;;;;;4.63;1.63;;;22.90;97.10;;;;;;5093199;28;20048;-78
2023/07/19 12:40:24;;;;;;;4.33;1.63;;;22.90;97.10;;;;;;5093526;28;20061;-78
2023/07/19 12:42:50;;;;;;;3.83;1.50;;;22.90;97.10;;;;;;5091996;28;20048;-81
2023/07/19 12:45:17;;;;;;;3.93;1.30;;;22.90;97.00;;;;;;5092856;28;20046;-80